Lincoln Lakeshore

*Note: All times are displayed in the local standard time of the station location.
**Rain - Equipment is designed to accurately record liquid precipitation; under conditions when precipitation is not in liquid form, the data displayed may not properly reflect rainfall values.

Date Max Temp
(°C)
Min Temp
(°C)
Avg Temp
(°C)
Rain (mm) Avg RH (%)
Fri, Dec 14, 2018 7.2 1.0 3.9 1.6 94.1
Thu, Dec 13, 2018 4.8 -1.3 1.2 1.0 98.7
Wed, Dec 12, 2018 2.1 -3.5 -0.3 0.0 78.1
Tue, Dec 11, 2018 0.3 -2.0 -0.7 0.0 67.3
Mon, Dec 10, 2018 1.1 -1.7 -0.2 0.0 64.7
Sun, Dec 09, 2018 1.4 -6.7 -2.2 0.0 56.2
Sat, Dec 08, 2018 0.1 -5.6 -2.7 0.0 60.1
DateTime Avg Temp (°C) Rain (mm) RH (%)
Sat, Dec 15, 2018 18:00 3.4 0.0 97.8
Sat, Dec 15, 2018 17:00 3.4 0.0 97.1
Sat, Dec 15, 2018 16:00 3.5 0.0 96.8
Sat, Dec 15, 2018 15:00 3.7 0.0 94.0
Sat, Dec 15, 2018 14:00 3.9 0.0 93.6
Sat, Dec 15, 2018 13:00 4.1 0.0 95.7
Sat, Dec 15, 2018 12:00 3.8 0.0 98.9
Sat, Dec 15, 2018 11:00 3.5 0.0 99.8
Sat, Dec 15, 2018 10:00 3.0 0.0 99.9
Sat, Dec 15, 2018 09:00 2.2 0.0 99.9
Sat, Dec 15, 2018 08:00 1.8 0.0 99.9
Sat, Dec 15, 2018 07:00 1.5 0.0 99.9
Sat, Dec 15, 2018 06:00 0.8 0.0 99.9
Sat, Dec 15, 2018 05:00 0.0 0.0 99.9
Sat, Dec 15, 2018 04:00 0.3 0.0 99.9
Sat, Dec 15, 2018 03:00 1.1 0.0 99.9
Sat, Dec 15, 2018 02:00 1.4 0.0 99.9
Sat, Dec 15, 2018 01:00 2.3 0.0 99.9
Sat, Dec 15, 2018 00:00 4.5 0.0 97.5
Fri, Dec 14, 2018 23:00 5.0 0.0 92.3
Fri, Dec 14, 2018 22:00 4.9 0.0 91.1
Fri, Dec 14, 2018 21:00 4.8 0.0 91.7
Fri, Dec 14, 2018 20:00 4.1 0.0 98.7
Fri, Dec 14, 2018 19:00 4.1 0.0 98.6
Fri, Dec 14, 2018 18:00 4.3 0.0 86.6
Fri, Dec 14, 2018 17:00 6.5 0.0 72.5
Fri, Dec 14, 2018 16:00 6.8 0.0 74.8
Fri, Dec 14, 2018 15:00 6.3 0.0 86.7
Fri, Dec 14, 2018 14:00 5.3 0.0 96.9
Fri, Dec 14, 2018 13:00 5.1 0.0 99.8
Fri, Dec 14, 2018 12:00 4.4 0.0 99.9
Fri, Dec 14, 2018 11:00 4.2 1.0 99.9
Fri, Dec 14, 2018 10:00 4.3 0.6 95.4
Fri, Dec 14, 2018 09:00 4.1 0.0 90.8
Fri, Dec 14, 2018 08:00 4.0 0.0 90.3
Fri, Dec 14, 2018 07:00 2.7 0.0 97.4
Fri, Dec 14, 2018 06:00 1.7 0.0 99.9
Fri, Dec 14, 2018 05:00 1.8 0.0 99.1
Fri, Dec 14, 2018 04:00 1.4 0.0 99.5
Fri, Dec 14, 2018 03:00 1.3 0.0 99.9
Fri, Dec 14, 2018 02:00 1.8 0.0 99.9
Fri, Dec 14, 2018 01:00 1.5 0.0 99.9
Fri, Dec 14, 2018 00:00 1.0 0.0 99.9
Thu, Dec 13, 2018 23:00 0.6 0.0 99.9
Thu, Dec 13, 2018 22:00 0.2 0.0 99.9
Thu, Dec 13, 2018 21:00 0.8 0.0 99.9
Thu, Dec 13, 2018 20:00 0.5 0.0 99.9
Thu, Dec 13, 2018 19:00 1.8 0.0 99.9


asterix Register now to access more data! asterix